CSN5465 ZWSH-ZSAM
Flight info
| Callsign | CSN5465 |
|---|---|
| Flight time | N/A |
| Altitude | 39100 |
| Route | K0898S1190 MAGIV6Z MAGIV W187 SADAN Y1 OMBON DCT AGULU DCT ENH/K0902S1250 DCT LLC DCT TEBON TEBON8X |
| Aircraft | A359/H-SDE2E3GHIJ3J4J5LM1ORWXY/LB1D1 |
Departure
| Time | 2026-05-05 06:35 |
|---|---|
| Airport | Kashgar Laining International Airport (ZWSH) |
Arrival
| Time | N/A |
|---|---|
| Airport | Xiamen Gaoqi International Airport (ZSAM) |
| Time | Latitude | Longitude | Altitude | Speed | Heading |
|---|---|---|---|---|---|
| 2026-05-05 06:02 | 39.53779 | 76.00750 | 4528 ft | 0 kts | 176° |
| 2026-05-05 06:21 | 39.53801 | 76.00749 | 4509 ft | 4 kts | 180° |
| 2026-05-05 06:21 | 39.53828 | 76.00749 | 4523 ft | 4 kts | 184° |
| 2026-05-05 06:22 | 39.53855 | 76.00752 | 4523 ft | 4 kts | 186° |
| 2026-05-05 06:22 | 39.53873 | 76.00755 | 4523 ft | 1 kts | 186° |
| 2026-05-05 06:22 | 39.53876 | 76.00755 | 4528 ft | 0 kts | 186° |
| 2026-05-05 06:25 | 39.53872 | 76.00754 | 4523 ft | 1 kts | 186° |
| 2026-05-05 06:26 | 39.53853 | 76.00745 | 4524 ft | 3 kts | 215° |
| 2026-05-05 06:26 | 39.53838 | 76.00706 | 4525 ft | 6 kts | 253° |
| 2026-05-05 06:26 | 39.53832 | 76.00645 | 4528 ft | 7 kts | 265° |
| 2026-05-05 06:26 | 39.53834 | 76.00575 | 4525 ft | 8 kts | 287° |
| 2026-05-05 06:27 | 39.53877 | 76.00535 | 4524 ft | 8 kts | 345° |
| 2026-05-05 06:27 | 39.53982 | 76.00600 | 4526 ft | 11 kts | 76° |
| 2026-05-05 06:27 | 39.53990 | 76.00708 | 4528 ft | 13 kts | 86° |
| 2026-05-05 06:28 | 39.53996 | 76.00826 | 4528 ft | 14 kts | 86° |
| 2026-05-05 06:28 | 39.54003 | 76.00954 | 4524 ft | 15 kts | 86° |
| 2026-05-05 06:28 | 39.54011 | 76.01091 | 4526 ft | 16 kts | 86° |
| 2026-05-05 06:28 | 39.54019 | 76.01237 | 4525 ft | 17 kts | 86° |
| 2026-05-05 06:29 | 39.54026 | 76.01390 | 4525 ft | 17 kts | 86° |
| 2026-05-05 06:29 | 39.54035 | 76.01550 | 4525 ft | 18 kts | 86° |
| 2026-05-05 06:29 | 39.54044 | 76.01716 | 4524 ft | 19 kts | 86° |
| 2026-05-05 06:29 | 39.54053 | 76.01886 | 4528 ft | 19 kts | 86° |
| 2026-05-05 06:30 | 39.54063 | 76.02059 | 4528 ft | 19 kts | 86° |
| 2026-05-05 06:30 | 39.54072 | 76.02235 | 4525 ft | 20 kts | 86° |
| 2026-05-05 06:30 | 39.54082 | 76.02411 | 4528 ft | 20 kts | 86° |
| 2026-05-05 06:30 | 39.54091 | 76.02586 | 4525 ft | 20 kts | 86° |
| 2026-05-05 06:31 | 39.54101 | 76.02764 | 4525 ft | 20 kts | 86° |
| 2026-05-05 06:31 | 39.54111 | 76.02945 | 4526 ft | 20 kts | 86° |
| 2026-05-05 06:31 | 39.54120 | 76.03109 | 4526 ft | 17 kts | 86° |
| 2026-05-05 06:31 | 39.54128 | 76.03267 | 4528 ft | 18 kts | 86° |
| 2026-05-05 06:32 | 39.54137 | 76.03427 | 4528 ft | 18 kts | 86° |
| 2026-05-05 06:32 | 39.54146 | 76.03588 | 4524 ft | 17 kts | 86° |
| 2026-05-05 06:32 | 39.54154 | 76.03739 | 4528 ft | 17 kts | 86° |
| 2026-05-05 06:32 | 39.54199 | 76.03845 | 4526 ft | 11 kts | 20° |
| 2026-05-05 06:33 | 39.54271 | 76.03843 | 4527 ft | 10 kts | 355° |
| 2026-05-05 06:33 | 39.54325 | 76.03821 | 4527 ft | 7 kts | 313° |
| 2026-05-05 06:33 | 39.54336 | 76.03767 | 4529 ft | 6 kts | 273° |
| 2026-05-05 06:33 | 39.54334 | 76.03735 | 4531 ft | 0 kts | 266° |
| 2026-05-05 06:34 | 39.54333 | 76.03700 | 4527 ft | 14 kts | 266° |
| 2026-05-05 06:34 | 39.54310 | 76.03286 | 4530 ft | 77 kts | 266° |
| 2026-05-05 06:34 | 39.54258 | 76.02333 | 4526 ft | 132 kts | 266° |
| 2026-05-05 06:34 | 39.54186 | 76.00939 | 4650 ft | 166 kts | 266° |
| 2026-05-05 06:35 | 39.54093 | 75.99538 | 5497 ft | 152 kts | 267° |
| 2026-05-05 06:35 | 39.53996 | 75.98108 | 5987 ft | 168 kts | 268° |
| 2026-05-05 06:35 | 39.53920 | 75.96559 | 6491 ft | 178 kts | 269° |
| 2026-05-05 06:35 | 39.53861 | 75.94895 | 6906 ft | 192 kts | 270° |
| 2026-05-05 06:36 | 39.53789 | 75.93094 | 7263 ft | 209 kts | 268° |
| 2026-05-05 06:36 | 39.53675 | 75.91111 | 7544 ft | 233 kts | 268° |
| 2026-05-05 06:36 | 39.53553 | 75.88936 | 7921 ft | 249 kts | 267° |
| 2026-05-05 06:36 | 39.53357 | 75.86673 | 8604 ft | 257 kts | 260° |
| 2026-05-05 06:37 | 39.52609 | 75.84556 | 9381 ft | 265 kts | 232° |
| 2026-05-05 06:37 | 39.51079 | 75.83184 | 10104 ft | 276 kts | 200° |
| 2026-05-05 06:37 | 39.49151 | 75.82944 | 10827 ft | 281 kts | 178° |
| 2026-05-05 06:37 | 39.47189 | 75.83153 | 11632 ft | 283 kts | 176° |
| 2026-05-05 06:38 | 39.45217 | 75.83473 | 12362 ft | 289 kts | 170° |
| 2026-05-05 06:38 | 39.43355 | 75.84486 | 13080 ft | 296 kts | 145° |
| 2026-05-05 06:38 | 39.41990 | 75.86494 | 13680 ft | 307 kts | 117° |
| 2026-05-05 06:38 | 39.41305 | 75.89168 | 14076 ft | 322 kts | 102° |
| 2026-05-05 06:39 | 39.40829 | 75.92072 | 14427 ft | 338 kts | 101° |
| 2026-05-05 06:39 | 39.40336 | 75.95072 | 14766 ft | 353 kts | 101° |
| 2026-05-05 06:39 | 39.39797 | 75.98237 | 15107 ft | 368 kts | 102° |
| 2026-05-05 06:39 | 39.39227 | 76.01534 | 15460 ft | 382 kts | 102° |
| 2026-05-05 06:40 | 39.38632 | 76.04941 | 15786 ft | 394 kts | 102° |
| 2026-05-05 06:40 | 39.38010 | 76.08439 | 16241 ft | 403 kts | 103° |
| 2026-05-05 06:40 | 39.37378 | 76.11989 | 16865 ft | 406 kts | 103° |
| 2026-05-05 06:40 | 39.36737 | 76.15552 | 17522 ft | 408 kts | 103° |
| 2026-05-05 06:41 | 39.36093 | 76.19130 | 18206 ft | 410 kts | 103° |
| 2026-05-05 06:41 | 39.35447 | 76.22720 | 18770 ft | 412 kts | 103° |
| 2026-05-05 06:41 | 39.34796 | 76.26339 | 19300 ft | 415 kts | 103° |
| 2026-05-05 06:41 | 39.34132 | 76.29979 | 19840 ft | 419 kts | 103° |
| 2026-05-05 06:42 | 39.33273 | 76.33583 | 20364 ft | 422 kts | 111° |
| 2026-05-05 06:42 | 39.31944 | 76.36981 | 20909 ft | 425 kts | 122° |
| 2026-05-05 06:42 | 39.30171 | 76.40060 | 21477 ft | 429 kts | 129° |
| 2026-05-05 06:42 | 39.28276 | 76.42980 | 22030 ft | 432 kts | 130° |
| 2026-05-05 06:43 | 39.26327 | 76.45955 | 22583 ft | 435 kts | 130° |
| 2026-05-05 06:43 | 39.24371 | 76.48952 | 23148 ft | 438 kts | 130° |
| 2026-05-05 06:43 | 39.22402 | 76.51976 | 23667 ft | 442 kts | 130° |
| 2026-05-05 06:43 | 39.20416 | 76.55026 | 24135 ft | 446 kts | 130° |
| 2026-05-05 06:44 | 39.18418 | 76.58097 | 24604 ft | 449 kts | 130° |
| 2026-05-05 06:44 | 39.16403 | 76.61194 | 25072 ft | 451 kts | 130° |
| 2026-05-05 06:44 | 39.14373 | 76.64306 | 25543 ft | 454 kts | 130° |
| 2026-05-05 06:44 | 39.12329 | 76.67437 | 26005 ft | 457 kts | 130° |
| 2026-05-05 06:45 | 39.10275 | 76.70585 | 26485 ft | 460 kts | 130° |
| 2026-05-05 06:45 | 39.08210 | 76.73745 | 26939 ft | 463 kts | 130° |
| 2026-05-05 06:45 | 39.06134 | 76.76920 | 27404 ft | 465 kts | 130° |
| 2026-05-05 06:45 | 39.04044 | 76.80113 | 27864 ft | 468 kts | 131° |
| 2026-05-05 06:46 | 39.01944 | 76.83319 | 28308 ft | 470 kts | 131° |
| 2026-05-05 06:46 | 38.99826 | 76.86548 | 28745 ft | 473 kts | 131° |
| 2026-05-05 06:46 | 38.97703 | 76.89782 | 29174 ft | 475 kts | 131° |
| 2026-05-05 06:46 | 38.95566 | 76.93033 | 29634 ft | 477 kts | 131° |
| 2026-05-05 06:47 | 38.93421 | 76.96294 | 30037 ft | 478 kts | 131° |
| 2026-05-05 06:47 | 38.91268 | 76.99562 | 30367 ft | 480 kts | 131° |
| 2026-05-05 06:47 | 38.89104 | 77.02844 | 30679 ft | 483 kts | 131° |
| 2026-05-05 06:47 | 38.86928 | 77.06140 | 30966 ft | 485 kts | 131° |
| 2026-05-05 06:48 | 38.84776 | 77.09399 | 31351 ft | 484 kts | 131° |
| 2026-05-05 06:48 | 38.82571 | 77.12733 | 31833 ft | 482 kts | 131° |
| 2026-05-05 06:48 | 38.80438 | 77.15958 | 32273 ft | 480 kts | 131° |
| 2026-05-05 06:48 | 38.78251 | 77.19257 | 32699 ft | 479 kts | 131° |
| 2026-05-05 06:49 | 38.76099 | 77.22504 | 33160 ft | 477 kts | 131° |
| 2026-05-05 06:49 | 38.73981 | 77.25695 | 33613 ft | 475 kts | 131° |
| 2026-05-05 06:49 | 38.71820 | 77.28946 | 34036 ft | 472 kts | 131° |
| 2026-05-05 06:49 | 38.69688 | 77.32150 | 34288 ft | 474 kts | 131° |
| 2026-05-05 06:50 | 38.67575 | 77.35323 | 34484 ft | 476 kts | 131° |
| 2026-05-05 06:50 | 38.65430 | 77.38550 | 34726 ft | 477 kts | 131° |
| 2026-05-05 06:50 | 38.63436 | 77.41956 | 34935 ft | 479 kts | 124° |
| 2026-05-05 06:50 | 38.61848 | 77.45705 | 35166 ft | 482 kts | 115° |
| 2026-05-05 06:51 | 38.60736 | 77.49768 | 35381 ft | 485 kts | 105° |
| 2026-05-05 06:51 | 38.60144 | 77.54022 | 35531 ft | 489 kts | 96° |
| 2026-05-05 06:51 | 38.60096 | 77.58380 | 35704 ft | 493 kts | 87° |
| 2026-05-05 06:51 | 38.60598 | 77.62726 | 35870 ft | 496 kts | 77° |
| 2026-05-05 06:52 | 38.61425 | 77.67022 | 36056 ft | 498 kts | 76° |
| 2026-05-05 06:52 | 38.62338 | 77.71296 | 36243 ft | 500 kts | 75° |
| 2026-05-05 06:52 | 38.63288 | 77.75576 | 36424 ft | 501 kts | 75° |
| 2026-05-05 06:52 | 38.64244 | 77.79867 | 36591 ft | 502 kts | 75° |
| 2026-05-05 06:53 | 38.65193 | 77.84165 | 36800 ft | 503 kts | 75° |
| 2026-05-05 06:53 | 38.66133 | 77.88481 | 36976 ft | 504 kts | 75° |
| 2026-05-05 06:53 | 38.67065 | 77.92814 | 37168 ft | 504 kts | 75° |
| 2026-05-05 06:53 | 38.67987 | 77.97139 | 37373 ft | 505 kts | 75° |
| 2026-05-05 06:54 | 38.68908 | 78.01481 | 37553 ft | 505 kts | 75° |
| 2026-05-05 06:54 | 38.69828 | 78.05833 | 37707 ft | 506 kts | 75° |
| 2026-05-05 06:54 | 38.70736 | 78.10133 | 37865 ft | 507 kts | 75° |
| 2026-05-05 06:54 | 38.71655 | 78.14499 | 38027 ft | 508 kts | 75° |
| 2026-05-05 06:55 | 38.72575 | 78.18871 | 38198 ft | 509 kts | 75° |
| 2026-05-05 06:55 | 38.73495 | 78.23253 | 38343 ft | 510 kts | 75° |
| 2026-05-05 06:55 | 38.74415 | 78.27638 | 38486 ft | 511 kts | 75° |
| 2026-05-05 06:55 | 38.75336 | 78.32039 | 38605 ft | 511 kts | 75° |
| 2026-05-05 06:56 | 38.76255 | 78.36442 | 38739 ft | 511 kts | 75° |
| 2026-05-05 06:56 | 38.77171 | 78.40837 | 38854 ft | 512 kts | 75° |
| 2026-05-05 06:56 | 38.78090 | 78.45255 | 38885 ft | 514 kts | 75° |
| 2026-05-05 06:57 | 38.79929 | 78.54129 | 38879 ft | 515 kts | 75° |
| 2026-05-05 06:57 | 38.81760 | 78.62997 | 38872 ft | 515 kts | 76° |
| 2026-05-05 06:58 | 38.83588 | 78.71892 | 38867 ft | 515 kts | 76° |
| 2026-05-05 06:58 | 38.85408 | 78.80783 | 38855 ft | 516 kts | 76° |
| 2026-05-05 06:59 | 38.87226 | 78.89698 | 38852 ft | 516 kts | 76° |
| 2026-05-05 06:59 | 38.89023 | 78.98555 | 38850 ft | 516 kts | 76° |
| 2026-05-05 07:00 | 38.90534 | 79.06026 | 38853 ft | 517 kts | 76° |
| 2026-05-05 07:00 | 38.92628 | 79.16430 | 38846 ft | 517 kts | 76° |
| 2026-05-05 07:01 | 38.94423 | 79.25388 | 38837 ft | 518 kts | 76° |
| 2026-05-05 07:01 | 38.95921 | 79.32897 | 38838 ft | 518 kts | 76° |
| 2026-05-05 07:02 | 38.97695 | 79.41818 | 38835 ft | 518 kts | 76° |
| 2026-05-05 07:02 | 38.99762 | 79.52268 | 38831 ft | 518 kts | 76° |
| 2026-05-05 07:03 | 39.01245 | 79.59796 | 38834 ft | 519 kts | 76° |
| 2026-05-05 07:03 | 39.03012 | 79.68802 | 38838 ft | 519 kts | 76° |
| 2026-05-05 07:04 | 39.04773 | 79.77812 | 38830 ft | 519 kts | 76° |
| 2026-05-05 07:04 | 39.06526 | 79.86827 | 38832 ft | 519 kts | 77° |
| 2026-05-05 07:05 | 39.08273 | 79.95853 | 38829 ft | 520 kts | 77° |
| 2026-05-05 07:05 | 39.10012 | 80.04879 | 38832 ft | 520 kts | 77° |
| 2026-05-05 07:06 | 39.11740 | 80.13862 | 38831 ft | 520 kts | 77° |
| 2026-05-05 07:06 | 39.13466 | 80.22910 | 38830 ft | 520 kts | 77° |
| 2026-05-05 07:07 | 39.15184 | 80.31966 | 38828 ft | 521 kts | 77° |
| 2026-05-05 07:07 | 39.16898 | 80.41033 | 38826 ft | 521 kts | 77° |
| 2026-05-05 07:08 | 39.18619 | 80.50171 | 38825 ft | 521 kts | 77° |
| 2026-05-05 07:08 | 39.20310 | 80.59198 | 38824 ft | 522 kts | 77° |
| 2026-05-05 07:09 | 39.22006 | 80.68289 | 38825 ft | 522 kts | 77° |
| 2026-05-05 07:09 | 39.23698 | 80.77399 | 38826 ft | 522 kts | 77° |
| 2026-05-05 07:10 | 39.25385 | 80.86524 | 38831 ft | 523 kts | 77° |
| 2026-05-05 07:10 | 39.27064 | 80.95652 | 38829 ft | 523 kts | 77° |
| 2026-05-05 07:11 | 39.28736 | 81.04784 | 38829 ft | 523 kts | 77° |
| 2026-05-05 07:11 | 39.30403 | 81.13934 | 38829 ft | 523 kts | 77° |
| 2026-05-05 07:12 | 39.32064 | 81.23096 | 38825 ft | 524 kts | 77° |
| 2026-05-05 07:12 | 39.33709 | 81.32211 | 38825 ft | 524 kts | 77° |
| 2026-05-05 07:13 | 39.35356 | 81.41382 | 38823 ft | 524 kts | 77° |
| 2026-05-05 07:13 | 39.36998 | 81.50566 | 38820 ft | 524 kts | 77° |
| 2026-05-05 07:14 | 39.38634 | 81.59762 | 38821 ft | 525 kts | 77° |
| 2026-05-05 07:14 | 39.40262 | 81.68964 | 38818 ft | 525 kts | 78° |
| 2026-05-05 07:15 | 39.41883 | 81.78167 | 38816 ft | 525 kts | 78° |
| 2026-05-05 07:15 | 39.43498 | 81.87380 | 38815 ft | 525 kts | 78° |
| 2026-05-05 07:16 | 39.45105 | 81.96597 | 38819 ft | 525 kts | 78° |
| 2026-05-05 07:16 | 39.46697 | 82.05771 | 38816 ft | 525 kts | 78° |
| 2026-05-05 07:17 | 39.48290 | 82.15000 | 38812 ft | 525 kts | 78° |
| 2026-05-05 07:17 | 39.49879 | 82.24248 | 38810 ft | 526 kts | 78° |
| 2026-05-05 07:18 | 39.51458 | 82.33487 | 38815 ft | 526 kts | 78° |
| 2026-05-05 07:18 | 39.53030 | 82.42734 | 38812 ft | 526 kts | 78° |
| 2026-05-05 07:19 | 39.54598 | 82.51996 | 38810 ft | 526 kts | 78° |
| 2026-05-05 07:19 | 39.56157 | 82.61260 | 38810 ft | 526 kts | 78° |
| 2026-05-05 07:20 | 39.57708 | 82.70531 | 38807 ft | 526 kts | 78° |
| 2026-05-05 07:20 | 39.59252 | 82.79802 | 38809 ft | 526 kts | 78° |
| 2026-05-05 07:21 | 39.60790 | 82.89085 | 38807 ft | 526 kts | 78° |
| 2026-05-05 07:21 | 39.62320 | 82.98368 | 38803 ft | 526 kts | 78° |
| 2026-05-05 07:22 | 39.63844 | 83.07664 | 38803 ft | 526 kts | 78° |
| 2026-05-05 07:22 | 39.65359 | 83.16960 | 38801 ft | 526 kts | 78° |
| 2026-05-05 07:23 | 39.66867 | 83.26258 | 38799 ft | 527 kts | 78° |
| 2026-05-05 07:23 | 39.68369 | 83.35564 | 38799 ft | 527 kts | 78° |
| 2026-05-05 07:24 | 39.69854 | 83.44818 | 38803 ft | 527 kts | 79° |
| 2026-05-05 07:24 | 39.71351 | 83.54200 | 38802 ft | 527 kts | 79° |
| 2026-05-05 07:25 | 39.72821 | 83.63465 | 38800 ft | 527 kts | 79° |
| 2026-05-05 07:25 | 39.74296 | 83.72806 | 38799 ft | 527 kts | 79° |
| 2026-05-05 07:26 | 39.75764 | 83.82153 | 38800 ft | 528 kts | 79° |
| 2026-05-05 07:26 | 39.77223 | 83.91498 | 38799 ft | 528 kts | 79° |
| 2026-05-05 07:27 | 39.78675 | 84.00856 | 38805 ft | 528 kts | 79° |
| 2026-05-05 07:27 | 39.80122 | 84.10223 | 38802 ft | 528 kts | 79° |
| 2026-05-05 07:28 | 39.81559 | 84.19587 | 38805 ft | 528 kts | 79° |
| 2026-05-05 07:28 | 39.82981 | 84.28905 | 38803 ft | 528 kts | 79° |
| 2026-05-05 07:29 | 39.84405 | 84.38281 | 38808 ft | 528 kts | 79° |
| 2026-05-05 07:29 | 39.85822 | 84.47676 | 38808 ft | 529 kts | 79° |
| 2026-05-05 07:30 | 39.87232 | 84.57070 | 38808 ft | 529 kts | 79° |
| 2026-05-05 07:30 | 39.89333 | 84.71179 | 38804 ft | 529 kts | 80° |
| 2026-05-05 07:31 | 39.90726 | 84.80599 | 38807 ft | 529 kts | 80° |
| 2026-05-05 07:31 | 39.92112 | 84.90025 | 38805 ft | 530 kts | 80° |
| 2026-05-05 07:32 | 39.93489 | 84.99447 | 38805 ft | 530 kts | 80° |
| 2026-05-05 07:32 | 39.94862 | 85.08894 | 38806 ft | 530 kts | 80° |
| 2026-05-05 07:33 | 39.96224 | 85.18329 | 38808 ft | 530 kts | 80° |
| 2026-05-05 07:33 | 39.97571 | 85.27715 | 38802 ft | 530 kts | 80° |
| 2026-05-05 07:34 | 39.98920 | 85.37169 | 38801 ft | 530 kts | 80° |
| 2026-05-05 07:34 | 40.00261 | 85.46627 | 38802 ft | 530 kts | 81° |
| 2026-05-05 07:35 | 40.01594 | 85.56085 | 38804 ft | 530 kts | 81° |
| 2026-05-05 07:35 | 40.02920 | 85.65553 | 38808 ft | 530 kts | 81° |
| 2026-05-05 07:36 | 40.04237 | 85.75012 | 38804 ft | 530 kts | 81° |
| 2026-05-05 07:36 | 40.05546 | 85.84475 | 38808 ft | 530 kts | 81° |
| 2026-05-05 07:37 | 40.06786 | 85.93892 | 38803 ft | 529 kts | 85° |
| 2026-05-05 07:37 | 40.06515 | 86.03391 | 38804 ft | 522 kts | 105° |
| 2026-05-05 07:38 | 40.04420 | 86.12402 | 38809 ft | 518 kts | 112° |
| 2026-05-05 07:38 | 40.01977 | 86.21249 | 38809 ft | 518 kts | 114° |
| 2026-05-05 07:39 | 39.99503 | 86.30075 | 38811 ft | 518 kts | 114° |
| 2026-05-05 07:39 | 39.97060 | 86.38901 | 38824 ft | 518 kts | 113° |
| 2026-05-05 07:40 | 39.94628 | 86.47730 | 38821 ft | 517 kts | 114° |
| 2026-05-05 07:40 | 39.92194 | 86.56551 | 38825 ft | 517 kts | 114° |
| 2026-05-05 07:41 | 39.89757 | 86.65350 | 38809 ft | 516 kts | 114° |
| 2026-05-05 07:41 | 39.87331 | 86.74072 | 38820 ft | 516 kts | 114° |
| 2026-05-05 07:42 | 39.84879 | 86.82862 | 38819 ft | 516 kts | 114° |
| 2026-05-05 07:42 | 39.82422 | 86.91636 | 38822 ft | 515 kts | 114° |
| 2026-05-05 07:43 | 39.79959 | 87.00397 | 38820 ft | 515 kts | 114° |
| 2026-05-05 07:43 | 39.77494 | 87.09141 | 38818 ft | 515 kts | 114° |
| 2026-05-05 07:44 | 39.75037 | 87.17829 | 38814 ft | 515 kts | 115° |
| 2026-05-05 07:44 | 39.72554 | 87.26577 | 38817 ft | 515 kts | 115° |
| 2026-05-05 07:45 | 39.70071 | 87.35299 | 38811 ft | 515 kts | 115° |
| 2026-05-05 07:45 | 39.67578 | 87.44021 | 38810 ft | 514 kts | 115° |
| 2026-05-05 07:46 | 39.65086 | 87.52715 | 38811 ft | 514 kts | 115° |
| 2026-05-05 07:46 | 39.63013 | 87.59927 | 38810 ft | 513 kts | 115° |
| 2026-05-05 07:47 | 39.60113 | 87.69983 | 38809 ft | 511 kts | 115° |
| 2026-05-05 07:47 | 39.57615 | 87.78610 | 38807 ft | 510 kts | 116° |
| 2026-05-05 07:48 | 39.55524 | 87.85809 | 38804 ft | 509 kts | 116° |
| 2026-05-05 07:48 | 39.52620 | 87.95775 | 38805 ft | 508 kts | 116° |
| 2026-05-05 07:49 | 39.50542 | 88.02885 | 38806 ft | 508 kts | 116° |
| 2026-05-05 07:49 | 39.48039 | 88.11423 | 38807 ft | 507 kts | 116° |
| 2026-05-05 07:50 | 39.45532 | 88.19949 | 38806 ft | 506 kts | 116° |
| 2026-05-05 07:50 | 39.43021 | 88.28459 | 38811 ft | 506 kts | 116° |
| 2026-05-05 07:51 | 39.40507 | 88.36954 | 38807 ft | 505 kts | 116° |
| 2026-05-05 07:51 | 39.37991 | 88.45427 | 38808 ft | 504 kts | 116° |
| 2026-05-05 07:52 | 39.35476 | 88.53872 | 38814 ft | 503 kts | 116° |
| 2026-05-05 07:52 | 39.32961 | 88.62292 | 38815 ft | 502 kts | 116° |
| 2026-05-05 07:53 | 39.30458 | 88.70642 | 38817 ft | 501 kts | 116° |
| 2026-05-05 07:53 | 39.27938 | 88.79024 | 38819 ft | 500 kts | 116° |
| 2026-05-05 07:54 | 39.25414 | 88.87390 | 38835 ft | 499 kts | 116° |
| 2026-05-05 07:54 | 39.22888 | 88.95735 | 38841 ft | 499 kts | 116° |
| 2026-05-05 07:55 | 39.20361 | 89.04065 | 38851 ft | 499 kts | 116° |
| 2026-05-05 07:55 | 39.17825 | 89.12395 | 38862 ft | 499 kts | 116° |
| 2026-05-05 07:56 | 39.15283 | 89.20722 | 38874 ft | 499 kts | 117° |
| 2026-05-05 07:56 | 39.12737 | 89.29037 | 38889 ft | 499 kts | 117° |
| 2026-05-05 07:57 | 39.10199 | 89.37296 | 38905 ft | 499 kts | 117° |
| 2026-05-05 07:57 | 39.07638 | 89.45610 | 38921 ft | 500 kts | 117° |
| 2026-05-05 07:58 | 39.05068 | 89.53927 | 38938 ft | 500 kts | 117° |
| 2026-05-05 07:58 | 39.02494 | 89.62230 | 38955 ft | 500 kts | 117° |
| 2026-05-05 07:59 | 38.99911 | 89.70538 | 38971 ft | 500 kts | 117° |
| 2026-05-05 07:59 | 38.97322 | 89.78840 | 38975 ft | 500 kts | 117° |
| 2026-05-05 08:00 | 38.94726 | 89.87145 | 38995 ft | 500 kts | 117° |
| 2026-05-05 08:00 | 38.92122 | 89.95446 | 39001 ft | 501 kts | 117° |
| 2026-05-05 08:01 | 38.89523 | 90.03704 | 39014 ft | 502 kts | 117° |
| 2026-05-05 08:01 | 38.86906 | 90.11999 | 39021 ft | 501 kts | 117° |
| 2026-05-05 08:02 | 38.84283 | 90.20286 | 39030 ft | 500 kts | 117° |
| 2026-05-05 08:02 | 38.81660 | 90.28546 | 39041 ft | 500 kts | 117° |
| 2026-05-05 08:03 | 38.79034 | 90.36797 | 39049 ft | 499 kts | 118° |
| 2026-05-05 08:03 | 38.76407 | 90.45032 | 39054 ft | 498 kts | 118° |
| 2026-05-05 08:04 | 38.73777 | 90.53245 | 39056 ft | 498 kts | 118° |
| 2026-05-05 08:04 | 38.71147 | 90.61437 | 39052 ft | 497 kts | 118° |
| 2026-05-05 08:05 | 38.68529 | 90.69565 | 39050 ft | 497 kts | 118° |
| 2026-05-05 08:05 | 38.66047 | 90.77839 | 39042 ft | 499 kts | 115° |
| 2026-05-05 08:06 | 38.63778 | 90.86248 | 39029 ft | 500 kts | 115° |
| 2026-05-05 08:06 | 38.61492 | 90.94651 | 39014 ft | 500 kts | 115° |
| 2026-05-05 08:07 | 38.59160 | 91.03023 | 39003 ft | 499 kts | 116° |
| 2026-05-05 08:07 | 38.56806 | 91.11379 | 38988 ft | 499 kts | 116° |
| 2026-05-05 08:08 | 38.54443 | 91.19731 | 38980 ft | 500 kts | 116° |
| 2026-05-05 08:08 | 38.52075 | 91.28083 | 38968 ft | 500 kts | 116° |
| 2026-05-05 08:09 | 38.49715 | 91.36381 | 38955 ft | 500 kts | 116° |
| 2026-05-05 08:09 | 38.47337 | 91.44723 | 38947 ft | 500 kts | 116° |
| 2026-05-05 08:10 | 38.44953 | 91.53059 | 38940 ft | 500 kts | 116° |
| 2026-05-05 08:10 | 38.42563 | 91.61387 | 38928 ft | 499 kts | 116° |
| 2026-05-05 08:11 | 38.40169 | 91.69700 | 38921 ft | 499 kts | 116° |
| 2026-05-05 08:11 | 38.37770 | 91.78007 | 38918 ft | 499 kts | 116° |
| 2026-05-05 08:12 | 38.35368 | 91.86298 | 38912 ft | 498 kts | 116° |
| 2026-05-05 08:12 | 38.32966 | 91.94566 | 38902 ft | 497 kts | 116° |
| 2026-05-05 08:13 | 38.30563 | 92.02813 | 38898 ft | 496 kts | 116° |
| 2026-05-05 08:13 | 38.28157 | 92.11043 | 38893 ft | 496 kts | 116° |
| 2026-05-05 08:14 | 38.25763 | 92.19209 | 38890 ft | 495 kts | 116° |
| 2026-05-05 08:14 | 38.23349 | 92.27418 | 38888 ft | 495 kts | 116° |
| 2026-05-05 08:15 | 38.20934 | 92.35602 | 38880 ft | 494 kts | 116° |
| 2026-05-05 08:15 | 38.18515 | 92.43779 | 38875 ft | 494 kts | 116° |
| 2026-05-05 08:16 | 38.16085 | 92.51938 | 38859 ft | 493 kts | 117° |
| 2026-05-05 08:16 | 38.13266 | 92.59808 | 38864 ft | 488 kts | 122° |
| 2026-05-05 08:17 | 38.10242 | 92.67541 | 38861 ft | 489 kts | 122° |
| 2026-05-05 08:17 | 38.07261 | 92.75307 | 38842 ft | 490 kts | 121° |
| 2026-05-05 08:18 | 38.04323 | 92.83121 | 38830 ft | 491 kts | 121° |
| 2026-05-05 08:18 | 38.01395 | 92.90947 | 38825 ft | 491 kts | 121° |
| 2026-05-05 08:19 | 37.98478 | 92.98722 | 38818 ft | 492 kts | 121° |
| 2026-05-05 08:19 | 37.95528 | 93.06553 | 38803 ft | 493 kts | 121° |
| 2026-05-05 08:20 | 37.92567 | 93.14393 | 38789 ft | 494 kts | 121° |
| 2026-05-05 08:20 | 37.89598 | 93.22233 | 38775 ft | 494 kts | 121° |
| 2026-05-05 08:21 | 37.86619 | 93.30081 | 38768 ft | 495 kts | 121° |
| 2026-05-05 08:21 | 37.83628 | 93.37941 | 38753 ft | 495 kts | 121° |
| 2026-05-05 08:22 | 37.80632 | 93.45792 | 38743 ft | 496 kts | 121° |
| 2026-05-05 08:22 | 37.77622 | 93.53658 | 38736 ft | 497 kts | 121° |
| 2026-05-05 08:23 | 37.74611 | 93.61507 | 38728 ft | 497 kts | 121° |
| 2026-05-05 08:23 | 37.71582 | 93.69385 | 38720 ft | 498 kts | 121° |
| 2026-05-05 08:24 | 37.68562 | 93.77219 | 38720 ft | 499 kts | 121° |
| 2026-05-05 08:24 | 37.65517 | 93.85099 | 38714 ft | 500 kts | 121° |
| 2026-05-05 08:25 | 37.62464 | 93.92980 | 38709 ft | 500 kts | 121° |
| 2026-05-05 08:25 | 37.59404 | 94.00860 | 38703 ft | 500 kts | 121° |
| 2026-05-05 08:26 | 37.56337 | 94.08737 | 38700 ft | 500 kts | 121° |
| 2026-05-05 08:26 | 37.53266 | 94.16605 | 38693 ft | 500 kts | 121° |
| 2026-05-05 08:27 | 37.50190 | 94.24462 | 38684 ft | 500 kts | 122° |
| 2026-05-05 08:27 | 37.47111 | 94.32307 | 38695 ft | 499 kts | 122° |
| 2026-05-05 08:28 | 37.44030 | 94.40140 | 38688 ft | 499 kts | 122° |
| 2026-05-05 08:28 | 37.40964 | 94.47917 | 38679 ft | 499 kts | 122° |
| 2026-05-05 08:29 | 37.37872 | 94.55737 | 38678 ft | 499 kts | 122° |
| 2026-05-05 08:30 | 37.33220 | 94.67465 | 38677 ft | 500 kts | 122° |
| 2026-05-05 08:30 | 37.30113 | 94.75275 | 38682 ft | 500 kts | 122° |
| 2026-05-05 08:31 | 37.26994 | 94.83097 | 38684 ft | 501 kts | 122° |
| 2026-05-05 08:31 | 37.23870 | 94.90913 | 38682 ft | 501 kts | 122° |
| 2026-05-05 08:32 | 37.20737 | 94.98733 | 38683 ft | 501 kts | 122° |
| 2026-05-05 08:32 | 37.17595 | 95.06551 | 38680 ft | 502 kts | 122° |
| 2026-05-05 08:33 | 37.14443 | 95.14375 | 38681 ft | 503 kts | 122° |
| 2026-05-05 08:33 | 37.11304 | 95.22149 | 38677 ft | 504 kts | 122° |
| 2026-05-05 08:34 | 37.08131 | 95.29989 | 38668 ft | 505 kts | 122° |
| 2026-05-05 08:34 | 37.04950 | 95.37832 | 38662 ft | 506 kts | 122° |
| 2026-05-05 08:35 | 37.01756 | 95.45686 | 38661 ft | 506 kts | 122° |
| 2026-05-05 08:35 | 36.98563 | 95.53552 | 38655 ft | 508 kts | 121° |
| 2026-05-05 08:36 | 36.95440 | 95.61493 | 38647 ft | 509 kts | 121° |
| 2026-05-05 08:36 | 36.92861 | 95.68096 | 38648 ft | 509 kts | 121° |
| 2026-05-05 08:37 | 36.89738 | 95.76042 | 38645 ft | 509 kts | 121° |
| 2026-05-05 08:37 | 36.86071 | 95.85307 | 38637 ft | 509 kts | 121° |
| 2026-05-05 08:38 | 36.83458 | 95.91884 | 38634 ft | 509 kts | 121° |
| 2026-05-05 08:38 | 36.80308 | 95.99796 | 38631 ft | 509 kts | 121° |
| 2026-05-05 08:39 | 36.77155 | 96.07699 | 38632 ft | 509 kts | 121° |
| 2026-05-05 08:39 | 36.74013 | 96.15628 | 38627 ft | 510 kts | 121° |
| 2026-05-05 08:40 | 36.70879 | 96.23551 | 38627 ft | 510 kts | 121° |
| 2026-05-05 08:40 | 36.67734 | 96.31473 | 38628 ft | 510 kts | 121° |
| 2026-05-05 08:41 | 36.64582 | 96.39387 | 38631 ft | 510 kts | 121° |
| 2026-05-05 08:41 | 36.61438 | 96.47257 | 38627 ft | 511 kts | 122° |
| 2026-05-05 08:42 | 36.58268 | 96.55174 | 38627 ft | 511 kts | 122° |
| 2026-05-05 08:42 | 36.55101 | 96.63099 | 38627 ft | 512 kts | 121° |
| 2026-05-05 08:43 | 36.51976 | 96.71057 | 38626 ft | 512 kts | 121° |
| 2026-05-05 08:43 | 36.48852 | 96.79026 | 38624 ft | 513 kts | 121° |
| 2026-05-05 08:44 | 36.45716 | 96.86982 | 38633 ft | 513 kts | 121° |
| 2026-05-05 08:44 | 36.42564 | 96.94943 | 38625 ft | 514 kts | 121° |
| 2026-05-05 08:45 | 36.39423 | 97.02858 | 38626 ft | 514 kts | 121° |
| 2026-05-05 08:45 | 36.36254 | 97.10824 | 38625 ft | 515 kts | 121° |
| 2026-05-05 08:46 | 36.33073 | 97.18797 | 38630 ft | 516 kts | 121° |
| 2026-05-05 08:46 | 36.29880 | 97.26781 | 38626 ft | 517 kts | 121° |
| 2026-05-05 08:47 | 36.26675 | 97.34778 | 38625 ft | 518 kts | 121° |
| 2026-05-05 08:47 | 36.23461 | 97.42776 | 38630 ft | 519 kts | 121° |
| 2026-05-05 08:48 | 36.20235 | 97.50786 | 38632 ft | 520 kts | 121° |
| 2026-05-05 08:48 | 36.16995 | 97.58808 | 38649 ft | 521 kts | 121° |
| 2026-05-05 08:49 | 36.13757 | 97.66846 | 38655 ft | 523 kts | 121° |
| 2026-05-05 08:49 | 36.10622 | 97.74968 | 38657 ft | 524 kts | 120° |
| 2026-05-05 08:50 | 36.07503 | 97.83124 | 38676 ft | 524 kts | 120° |
| 2026-05-05 08:50 | 36.04363 | 97.91262 | 38687 ft | 525 kts | 120° |
| 2026-05-05 08:51 | 36.01201 | 97.99397 | 38694 ft | 526 kts | 120° |
| 2026-05-05 08:51 | 35.98025 | 98.07534 | 38700 ft | 526 kts | 120° |
| 2026-05-05 08:52 | 35.94835 | 98.15685 | 38707 ft | 527 kts | 120° |
| 2026-05-05 08:52 | 35.91641 | 98.23837 | 38711 ft | 528 kts | 120° |
| 2026-05-05 08:53 | 35.88461 | 98.31926 | 38706 ft | 527 kts | 120° |
| 2026-05-05 08:53 | 35.85251 | 98.40083 | 38709 ft | 529 kts | 120° |
| 2026-05-05 08:54 | 35.82034 | 98.48230 | 38703 ft | 529 kts | 120° |
| 2026-05-05 08:54 | 35.78803 | 98.56390 | 38700 ft | 531 kts | 120° |
| 2026-05-05 08:55 | 35.75556 | 98.64571 | 38692 ft | 531 kts | 120° |
| 2026-05-05 08:55 | 35.72306 | 98.72740 | 38693 ft | 531 kts | 120° |
| 2026-05-05 08:56 | 35.69067 | 98.80859 | 38682 ft | 531 kts | 120° |
| 2026-05-05 08:56 | 35.65806 | 98.89013 | 38683 ft | 531 kts | 120° |
| 2026-05-05 08:57 | 35.62539 | 98.97163 | 38678 ft | 531 kts | 120° |
| 2026-05-05 08:57 | 35.59267 | 99.05302 | 38679 ft | 531 kts | 120° |
| 2026-05-05 08:58 | 35.55992 | 99.13433 | 38676 ft | 531 kts | 120° |
| 2026-05-05 08:58 | 35.52712 | 99.21553 | 38671 ft | 531 kts | 120° |
| 2026-05-05 08:59 | 35.49426 | 99.29668 | 38673 ft | 530 kts | 120° |
| 2026-05-05 08:59 | 35.46138 | 99.37769 | 38667 ft | 531 kts | 120° |
| 2026-05-05 09:00 | 35.42831 | 99.45883 | 38675 ft | 533 kts | 121° |
| 2026-05-05 09:00 | 35.39540 | 99.53949 | 38653 ft | 532 kts | 121° |
| 2026-05-05 09:01 | 35.36224 | 99.62070 | 38640 ft | 533 kts | 121° |
| 2026-05-05 09:01 | 35.32893 | 99.70196 | 38629 ft | 534 kts | 121° |
| 2026-05-05 09:02 | 35.29546 | 99.78340 | 38609 ft | 535 kts | 121° |
| 2026-05-05 09:02 | 35.26190 | 99.86487 | 38589 ft | 536 kts | 121° |
| 2026-05-05 09:03 | 35.22823 | 99.94643 | 38568 ft | 536 kts | 121° |
| 2026-05-05 09:03 | 35.19463 | 100.02748 | 38569 ft | 538 kts | 121° |
| 2026-05-05 09:04 | 35.16075 | 100.10916 | 38554 ft | 539 kts | 121° |
| 2026-05-05 09:04 | 35.12661 | 100.19141 | 38548 ft | 539 kts | 121° |
| 2026-05-05 09:05 | 35.09270 | 100.27266 | 38549 ft | 542 kts | 121° |
| 2026-05-05 09:05 | 35.05844 | 100.35453 | 38549 ft | 542 kts | 121° |
| 2026-05-05 09:06 | 35.02406 | 100.43654 | 38555 ft | 543 kts | 121° |
| 2026-05-05 09:06 | 34.98959 | 100.51865 | 38568 ft | 544 kts | 121° |
| 2026-05-05 09:07 | 34.95500 | 100.60076 | 38576 ft | 544 kts | 121° |
| 2026-05-05 09:07 | 34.92027 | 100.68306 | 38589 ft | 545 kts | 121° |
| 2026-05-05 09:08 | 34.88570 | 100.76470 | 38587 ft | 545 kts | 121° |
| 2026-05-05 09:08 | 34.85086 | 100.84681 | 38595 ft | 547 kts | 121° |
| 2026-05-05 09:09 | 34.81586 | 100.92913 | 38597 ft | 547 kts | 121° |
| 2026-05-05 09:09 | 34.78082 | 101.01133 | 38598 ft | 547 kts | 121° |
| 2026-05-05 09:10 | 34.74576 | 101.09342 | 38596 ft | 547 kts | 120° |
| 2026-05-05 09:10 | 34.71052 | 101.17559 | 38599 ft | 547 kts | 120° |
| 2026-05-05 09:11 | 34.67539 | 101.25747 | 38597 ft | 546 kts | 120° |
| 2026-05-05 09:11 | 34.64014 | 101.33937 | 38603 ft | 547 kts | 120° |
| 2026-05-05 09:12 | 34.60489 | 101.42106 | 38602 ft | 546 kts | 120° |
| 2026-05-05 09:12 | 34.56986 | 101.50206 | 38602 ft | 545 kts | 120° |
| 2026-05-05 09:13 | 34.53458 | 101.58344 | 38611 ft | 544 kts | 120° |
| 2026-05-05 09:13 | 34.49934 | 101.66454 | 38616 ft | 543 kts | 120° |
| 2026-05-05 09:14 | 34.46414 | 101.74532 | 38624 ft | 542 kts | 120° |
| 2026-05-05 09:14 | 34.42896 | 101.82592 | 38630 ft | 541 kts | 120° |
| 2026-05-05 09:15 | 34.39372 | 101.90648 | 38637 ft | 541 kts | 120° |
| 2026-05-05 09:15 | 34.35868 | 101.98637 | 38640 ft | 540 kts | 120° |
| 2026-05-05 09:16 | 34.32333 | 102.06672 | 38643 ft | 539 kts | 119° |
| 2026-05-05 09:16 | 34.28807 | 102.14675 | 38652 ft | 539 kts | 120° |
| 2026-05-05 09:17 | 34.25271 | 102.22682 | 38653 ft | 540 kts | 120° |
| 2026-05-05 09:17 | 34.21727 | 102.30687 | 38667 ft | 540 kts | 120° |
| 2026-05-05 09:18 | 34.18183 | 102.38682 | 38657 ft | 540 kts | 120° |
| 2026-05-05 09:18 | 34.14725 | 102.46732 | 38654 ft | 540 kts | 119° |
| 2026-05-05 09:19 | 34.11306 | 102.54806 | 38663 ft | 540 kts | 119° |
| 2026-05-05 09:19 | 34.07873 | 102.62860 | 38666 ft | 540 kts | 119° |
| 2026-05-05 09:20 | 34.04423 | 102.70903 | 38658 ft | 540 kts | 119° |
| 2026-05-05 09:20 | 34.00979 | 102.78898 | 38662 ft | 541 kts | 119° |
| 2026-05-05 09:21 | 33.97502 | 102.86954 | 38659 ft | 541 kts | 119° |
| 2026-05-05 09:21 | 33.94018 | 102.95005 | 38660 ft | 542 kts | 119° |
| 2026-05-05 09:22 | 33.90533 | 103.03042 | 38647 ft | 542 kts | 119° |
| 2026-05-05 09:22 | 33.87031 | 103.11101 | 38656 ft | 543 kts | 120° |
| 2026-05-05 09:23 | 33.83520 | 103.19158 | 38635 ft | 544 kts | 120° |
| 2026-05-05 09:23 | 33.79991 | 103.27230 | 38654 ft | 545 kts | 120° |
| 2026-05-05 09:24 | 33.76488 | 103.35234 | 38672 ft | 545 kts | 120° |
| 2026-05-05 09:24 | 33.72950 | 103.43299 | 38668 ft | 545 kts | 120° |
| 2026-05-05 09:25 | 33.69416 | 103.51347 | 38669 ft | 545 kts | 120° |
| 2026-05-05 09:25 | 33.66465 | 103.58042 | 38670 ft | 546 kts | 120° |
| 2026-05-05 09:26 | 33.62309 | 103.67448 | 38687 ft | 546 kts | 119° |
| 2026-05-05 09:26 | 33.59348 | 103.74127 | 38694 ft | 545 kts | 119° |
| 2026-05-05 09:27 | 33.55790 | 103.82163 | 38717 ft | 546 kts | 120° |
| 2026-05-05 09:27 | 33.52211 | 103.90222 | 38730 ft | 547 kts | 120° |
| 2026-05-05 09:28 | 33.48631 | 103.98260 | 38742 ft | 546 kts | 120° |
| 2026-05-05 09:28 | 33.45045 | 104.06277 | 38758 ft | 547 kts | 120° |
| 2026-05-05 09:29 | 33.41437 | 104.14338 | 38757 ft | 549 kts | 120° |
| 2026-05-05 09:29 | 33.37832 | 104.22381 | 38770 ft | 549 kts | 120° |
| 2026-05-05 09:30 | 33.34478 | 104.30583 | 38778 ft | 549 kts | 114° |
| 2026-05-05 09:30 | 33.31425 | 104.38959 | 38781 ft | 550 kts | 114° |